<?xml version="1.0" encoding="UTF-8" standalone="no" ?>
<gpx xmlns="http://www.topografix.com/GPX/1/1" xmlns:xsi="http://www.w3.org/2001/XMLSchema-instance" xsi:schemaLocation="http://www.topografix.com/GPX/1/1 http://www.topografix.com/GPX/1/1/gpx.xsd" version="1.1" creator="VisuGPX - https://www.visugpx.com">
  <metadata>
    <name>Sentier Colette</name>
    <desc><![CDATA[Sentier familial et littéraire]]></desc>
  </metadata>
  <trk>
    <name><![CDATA[Sentier Colette]]></name>
    <trkseg>
      <trkpt lat="47.61677" lon="3.1988">
        <ele>269</ele>
        <time>2014-11-11T08:30:05+01:00</time>
      </trkpt>
      <trkpt lat="47.61666" lon="3.19851">
        <ele>267</ele>
        <time>2014-11-11T08:30:10+01:00</time>
      </trkpt>
      <trkpt lat="47.61698" lon="3.19829">
        <ele>267</ele>
        <time>2014-11-11T08:30:15+01:00</time>
      </trkpt>
      <trkpt lat="47.61687" lon="3.19805">
        <ele>265</ele>
        <time>2014-11-11T08:30:20+01:00</time>
      </trkpt>
      <trkpt lat="47.61673" lon="3.19773">
        <ele>262</ele>
        <time>2014-11-11T08:30:25+01:00</time>
      </trkpt>
      <trkpt lat="47.61725" lon="3.19701">
        <ele>259</ele>
        <time>2014-11-11T08:30:30+01:00</time>
      </trkpt>
      <trkpt lat="47.61736" lon="3.1966">
        <ele>257</ele>
        <time>2014-11-11T08:30:35+01:00</time>
      </trkpt>
      <trkpt lat="47.61747" lon="3.19613">
        <ele>257</ele>
        <time>2014-11-11T08:30:40+01:00</time>
      </trkpt>
      <trkpt lat="47.6179" lon="3.19555">
        <ele>255</ele>
        <time>2014-11-11T08:30:45+01:00</time>
      </trkpt>
      <trkpt lat="47.61792" lon="3.19549">
        <ele>255</ele>
        <time>2014-11-11T08:30:50+01:00</time>
      </trkpt>
      <trkpt lat="47.6178" lon="3.19539">
        <ele>255</ele>
        <time>2014-11-11T08:30:55+01:00</time>
      </trkpt>
      <trkpt lat="47.61746" lon="3.19503">
        <ele>253</ele>
        <time>2014-11-11T08:31:00+01:00</time>
      </trkpt>
      <trkpt lat="47.6174" lon="3.19502">
        <ele>252</ele>
        <time>2014-11-11T08:31:05+01:00</time>
      </trkpt>
      <trkpt lat="47.61737" lon="3.19463">
        <ele>248</ele>
        <time>2014-11-11T08:31:10+01:00</time>
      </trkpt>
      <trkpt lat="47.61751" lon="3.19432">
        <ele>247</ele>
        <time>2014-11-11T08:31:15+01:00</time>
      </trkpt>
      <trkpt lat="47.61732" lon="3.19375">
        <ele>241</ele>
        <time>2014-11-11T08:31:20+01:00</time>
      </trkpt>
      <trkpt lat="47.61726" lon="3.19359">
        <ele>240</ele>
        <time>2014-11-11T08:31:25+01:00</time>
      </trkpt>
      <trkpt lat="47.61712" lon="3.19281">
        <ele>236</ele>
        <time>2014-11-11T08:31:30+01:00</time>
      </trkpt>
      <trkpt lat="47.61695" lon="3.19206">
        <ele>233</ele>
        <time>2014-11-11T08:31:35+01:00</time>
      </trkpt>
      <trkpt lat="47.61689" lon="3.19199">
        <ele>233</ele>
        <time>2014-11-11T08:31:40+01:00</time>
      </trkpt>
      <trkpt lat="47.61665" lon="3.19184">
        <ele>232</ele>
        <time>2014-11-11T08:31:45+01:00</time>
      </trkpt>
      <trkpt lat="47.61679" lon="3.19107">
        <ele>231</ele>
        <time>2014-11-11T08:31:50+01:00</time>
      </trkpt>
      <trkpt lat="47.61682" lon="3.19084">
        <ele>232</ele>
        <time>2014-11-11T08:31:55+01:00</time>
      </trkpt>
      <trkpt lat="47.61679" lon="3.19062">
        <ele>231</ele>
        <time>2014-11-11T08:32:00+01:00</time>
      </trkpt>
      <trkpt lat="47.6165" lon="3.18941">
        <ele>230</ele>
        <time>2014-11-11T08:32:05+01:00</time>
      </trkpt>
      <trkpt lat="47.61642" lon="3.18873">
        <ele>231</ele>
        <time>2014-11-11T08:32:10+01:00</time>
      </trkpt>
      <trkpt lat="47.61637" lon="3.18781">
        <ele>232</ele>
        <time>2014-11-11T08:32:15+01:00</time>
      </trkpt>
      <trkpt lat="47.61633" lon="3.1871">
        <ele>233</ele>
        <time>2014-11-11T08:32:20+01:00</time>
      </trkpt>
      <trkpt lat="47.61632" lon="3.18666">
        <ele>234</ele>
        <time>2014-11-11T08:32:25+01:00</time>
      </trkpt>
      <trkpt lat="47.61635" lon="3.18457">
        <ele>239</ele>
        <time>2014-11-11T08:32:30+01:00</time>
      </trkpt>
      <trkpt lat="47.61609" lon="3.18354">
        <ele>239</ele>
        <time>2014-11-11T08:32:35+01:00</time>
      </trkpt>
      <trkpt lat="47.61602" lon="3.18355">
        <ele>238</ele>
        <time>2014-11-11T08:32:40+01:00</time>
      </trkpt>
      <trkpt lat="47.61595" lon="3.18351">
        <ele>237</ele>
        <time>2014-11-11T08:32:45+01:00</time>
      </trkpt>
      <trkpt lat="47.61588" lon="3.18335">
        <ele>236</ele>
        <time>2014-11-11T08:32:50+01:00</time>
      </trkpt>
      <trkpt lat="47.61585" lon="3.18318">
        <ele>236</ele>
        <time>2014-11-11T08:32:55+01:00</time>
      </trkpt>
      <trkpt lat="47.61575" lon="3.18304">
        <ele>235</ele>
        <time>2014-11-11T08:33:00+01:00</time>
      </trkpt>
      <trkpt lat="47.61558" lon="3.18304">
        <ele>234</ele>
        <time>2014-11-11T08:33:05+01:00</time>
      </trkpt>
      <trkpt lat="47.61403" lon="3.18393">
        <ele>223</ele>
        <time>2014-11-11T08:33:10+01:00</time>
      </trkpt>
      <trkpt lat="47.6135" lon="3.18418">
        <ele>225</ele>
        <time>2014-11-11T08:33:15+01:00</time>
      </trkpt>
      <trkpt lat="47.61288" lon="3.1839">
        <ele>226</ele>
        <time>2014-11-11T08:33:20+01:00</time>
      </trkpt>
      <trkpt lat="47.61266" lon="3.18338">
        <ele>227</ele>
        <time>2014-11-11T08:33:25+01:00</time>
      </trkpt>
      <trkpt lat="47.6114" lon="3.18162">
        <ele>231</ele>
        <time>2014-11-11T08:33:30+01:00</time>
      </trkpt>
      <trkpt lat="47.6111" lon="3.18049">
        <ele>232</ele>
        <time>2014-11-11T08:33:35+01:00</time>
      </trkpt>
      <trkpt lat="47.61104" lon="3.17993">
        <ele>231</ele>
        <time>2014-11-11T08:33:40+01:00</time>
      </trkpt>
      <trkpt lat="47.61101" lon="3.1798">
        <ele>231</ele>
        <time>2014-11-11T08:33:45+01:00</time>
      </trkpt>
      <trkpt lat="47.61037" lon="3.17899">
        <ele>229</ele>
        <time>2014-11-11T08:33:50+01:00</time>
      </trkpt>
      <trkpt lat="47.61036" lon="3.17834">
        <ele>225</ele>
        <time>2014-11-11T08:33:55+01:00</time>
      </trkpt>
      <trkpt lat="47.61025" lon="3.17551">
        <ele>227</ele>
        <time>2014-11-11T08:34:00+01:00</time>
      </trkpt>
      <trkpt lat="47.60995" lon="3.17561">
        <ele>227</ele>
        <time>2014-11-11T08:34:05+01:00</time>
      </trkpt>
      <trkpt lat="47.60953" lon="3.17558">
        <ele>227</ele>
        <time>2014-11-11T08:34:10+01:00</time>
      </trkpt>
      <trkpt lat="47.60909" lon="3.17546">
        <ele>227</ele>
        <time>2014-11-11T08:34:15+01:00</time>
      </trkpt>
      <trkpt lat="47.60823" lon="3.17649">
        <ele>228</ele>
        <time>2014-11-11T08:34:20+01:00</time>
      </trkpt>
      <trkpt lat="47.60737" lon="3.17833">
        <ele>235</ele>
        <time>2014-11-11T08:34:25+01:00</time>
      </trkpt>
      <trkpt lat="47.6073" lon="3.17846">
        <ele>238</ele>
        <time>2014-11-11T08:34:30+01:00</time>
      </trkpt>
      <trkpt lat="47.60601" lon="3.1817">
        <ele>264</ele>
        <time>2014-11-11T08:34:35+01:00</time>
      </trkpt>
      <trkpt lat="47.60583" lon="3.18196">
        <ele>265</ele>
        <time>2014-11-11T08:34:40+01:00</time>
      </trkpt>
      <trkpt lat="47.60562" lon="3.18209">
        <ele>265</ele>
        <time>2014-11-11T08:34:45+01:00</time>
      </trkpt>
      <trkpt lat="47.60325" lon="3.18275">
        <ele>278</ele>
        <time>2014-11-11T08:34:50+01:00</time>
      </trkpt>
      <trkpt lat="47.60295" lon="3.18293">
        <ele>279</ele>
        <time>2014-11-11T08:34:55+01:00</time>
      </trkpt>
      <trkpt lat="47.60357" lon="3.18381">
        <ele>278</ele>
        <time>2014-11-11T08:35:00+01:00</time>
      </trkpt>
      <trkpt lat="47.6038" lon="3.18435">
        <ele>279</ele>
        <time>2014-11-11T08:35:05+01:00</time>
      </trkpt>
      <trkpt lat="47.60405" lon="3.18467">
        <ele>281</ele>
        <time>2014-11-11T08:35:10+01:00</time>
      </trkpt>
      <trkpt lat="47.60428" lon="3.1849">
        <ele>282</ele>
        <time>2014-11-11T08:35:15+01:00</time>
      </trkpt>
      <trkpt lat="47.6044" lon="3.18509">
        <ele>281</ele>
        <time>2014-11-11T08:35:20+01:00</time>
      </trkpt>
      <trkpt lat="47.6046" lon="3.1856">
        <ele>280</ele>
        <time>2014-11-11T08:35:25+01:00</time>
      </trkpt>
      <trkpt lat="47.60503" lon="3.18663">
        <ele>283</ele>
        <time>2014-11-11T08:35:30+01:00</time>
      </trkpt>
      <trkpt lat="47.60521" lon="3.18695">
        <ele>283</ele>
        <time>2014-11-11T08:35:35+01:00</time>
      </trkpt>
      <trkpt lat="47.60535" lon="3.18712">
        <ele>283</ele>
        <time>2014-11-11T08:35:40+01:00</time>
      </trkpt>
      <trkpt lat="47.60551" lon="3.18721">
        <ele>283</ele>
        <time>2014-11-11T08:35:45+01:00</time>
      </trkpt>
      <trkpt lat="47.60584" lon="3.18712">
        <ele>284</ele>
        <time>2014-11-11T08:35:50+01:00</time>
      </trkpt>
      <trkpt lat="47.60597" lon="3.18714">
        <ele>284</ele>
        <time>2014-11-11T08:35:55+01:00</time>
      </trkpt>
      <trkpt lat="47.60705" lon="3.18818">
        <ele>284</ele>
        <time>2014-11-11T08:36:00+01:00</time>
      </trkpt>
      <trkpt lat="47.60744" lon="3.18846">
        <ele>283</ele>
        <time>2014-11-11T08:36:05+01:00</time>
      </trkpt>
      <trkpt lat="47.60791" lon="3.18853">
        <ele>279</ele>
        <time>2014-11-11T08:36:10+01:00</time>
      </trkpt>
      <trkpt lat="47.60845" lon="3.18869">
        <ele>275</ele>
        <time>2014-11-11T08:36:15+01:00</time>
      </trkpt>
      <trkpt lat="47.60876" lon="3.18892">
        <ele>274</ele>
        <time>2014-11-11T08:36:20+01:00</time>
      </trkpt>
      <trkpt lat="47.60982" lon="3.18986">
        <ele>270</ele>
        <time>2014-11-11T08:36:25+01:00</time>
      </trkpt>
      <trkpt lat="47.61" lon="3.18994">
        <ele>268</ele>
        <time>2014-11-11T08:36:30+01:00</time>
      </trkpt>
      <trkpt lat="47.61117" lon="3.19094">
        <ele>260</ele>
        <time>2014-11-11T08:36:35+01:00</time>
      </trkpt>
      <trkpt lat="47.61152" lon="3.19114">
        <ele>256</ele>
        <time>2014-11-11T08:36:40+01:00</time>
      </trkpt>
      <trkpt lat="47.61175" lon="3.19135">
        <ele>255</ele>
        <time>2014-11-11T08:36:45+01:00</time>
      </trkpt>
      <trkpt lat="47.61198" lon="3.19164">
        <ele>253</ele>
        <time>2014-11-11T08:36:50+01:00</time>
      </trkpt>
      <trkpt lat="47.61305" lon="3.19332">
        <ele>239</ele>
        <time>2014-11-11T08:36:55+01:00</time>
      </trkpt>
      <trkpt lat="47.61326" lon="3.19358">
        <ele>236</ele>
        <time>2014-11-11T08:37:00+01:00</time>
      </trkpt>
      <trkpt lat="47.61445" lon="3.19417">
        <ele>230</ele>
        <time>2014-11-11T08:37:05+01:00</time>
      </trkpt>
      <trkpt lat="47.61461" lon="3.19424">
        <ele>230</ele>
        <time>2014-11-11T08:37:10+01:00</time>
      </trkpt>
      <trkpt lat="47.61481" lon="3.19451">
        <ele>230</ele>
        <time>2014-11-11T08:37:15+01:00</time>
      </trkpt>
      <trkpt lat="47.61535" lon="3.19496">
        <ele>232</ele>
        <time>2014-11-11T08:37:20+01:00</time>
      </trkpt>
      <trkpt lat="47.61541" lon="3.19512">
        <ele>234</ele>
        <time>2014-11-11T08:37:25+01:00</time>
      </trkpt>
      <trkpt lat="47.61549" lon="3.19558">
        <ele>237</ele>
        <time>2014-11-11T08:37:30+01:00</time>
      </trkpt>
      <trkpt lat="47.61549" lon="3.1959">
        <ele>239</ele>
        <time>2014-11-11T08:37:35+01:00</time>
      </trkpt>
      <trkpt lat="47.61532" lon="3.19643">
        <ele>239</ele>
        <time>2014-11-11T08:37:40+01:00</time>
      </trkpt>
      <trkpt lat="47.61515" lon="3.19699">
        <ele>240</ele>
        <time>2014-11-11T08:37:45+01:00</time>
      </trkpt>
      <trkpt lat="47.61511" lon="3.19716">
        <ele>241</ele>
        <time>2014-11-11T08:37:50+01:00</time>
      </trkpt>
      <trkpt lat="47.61502" lon="3.19733">
        <ele>241</ele>
        <time>2014-11-11T08:37:55+01:00</time>
      </trkpt>
      <trkpt lat="47.61503" lon="3.19745">
        <ele>242</ele>
        <time>2014-11-11T08:38:00+01:00</time>
      </trkpt>
      <trkpt lat="47.61532" lon="3.19728">
        <ele>245</ele>
        <time>2014-11-11T08:38:05+01:00</time>
      </trkpt>
      <trkpt lat="47.6159" lon="3.19689">
        <ele>249</ele>
        <time>2014-11-11T08:38:10+01:00</time>
      </trkpt>
      <trkpt lat="47.6162" lon="3.19694">
        <ele>253</ele>
        <time>2014-11-11T08:38:15+01:00</time>
      </trkpt>
      <trkpt lat="47.6163" lon="3.19718">
        <ele>255</ele>
        <time>2014-11-11T08:38:20+01:00</time>
      </trkpt>
      <trkpt lat="47.61636" lon="3.19786">
        <ele>260</ele>
        <time>2014-11-11T08:38:25+01:00</time>
      </trkpt>
      <trkpt lat="47.61647" lon="3.19862">
        <ele>265</ele>
        <time>2014-11-11T08:38:30+01:00</time>
      </trkpt>
      <trkpt lat="47.61667" lon="3.1985">
        <ele>267</ele>
        <time>2014-11-11T08:38:35+01:00</time>
      </trkpt>
      <trkpt lat="47.61677" lon="3.19879">
        <ele>269</ele>
        <time>2014-11-11T08:38:40+01:00</time>
      </trkpt>
    </trkseg>
  </trk>
</gpx>